EW3381 Weather Reports


Display with metric or nautical units.
time (UTC)temp
F
wind
direction
speed
MPH
gust
MPH
rain 1hr
in
rain 24hr
in
rain mn
in
humidity
%
barometer
mb
20181016164845 55 219 3.0 10.0 0.00 0.00 0.00 87 1009.4
20181016163848 55 128 2.0 7.0 0.00 0.00 0.00 88 1009.3
20181016162830 55 144 1.0 5.0 0.00 0.00 0.00 89 1009.3
20181016161822 54 173 1.0 6.0 0.00 0.00 0.00 88 1009.4
20181016160749 54 178 1.0 6.0 0.00 0.00 0.00 89 1009.3
20181016155804 54 199 1.0 8.0 0.00 0.00 0.00 89 1009.4
20181016154732 54 202 2.0 8.0 0.00 0.00 0.00 89 1009.4
20181016153734 54 203 1.0 6.0 0.00 0.00 0.00 90 1009.3
20181016152705 54 198 2.0 7.0 0.00 0.00 0.00 90 1009.4
20181016151658 54 163 1.0 7.0 0.00 0.00 0.00 91 1009.4
20181016150624 53 173 0.0 4.0 0.00 0.00 0.00 92 1009.5
20181016145611 53 163 0.0 3.0 0.00 0.00 0.00 93 1009.5
20181016144618 53 134 0.0 3.0 0.00 0.00 0.00 93 1009.5
20181016143629 53 146 1.0 6.0 0.00 0.00 0.00 92 1009.4
20181016142603 54 229 2.0 8.0 0.00 0.00 0.00 91 1009.3
20181016141533 54 201 2.0 9.0 0.00 0.00 0.00 89 1009.3
20181016140506 54 168 3.0 9.0 0.00 0.00 0.00 88 1009.3
20181016135445 55 201 2.0 10.0 0.00 0.00 0.00 86 1009.3
20181016134423 55 145 3.0 10.0 0.00 0.00 0.00 84 1009.4
20181016133420 55 142 2.0 6.0 0.00 0.00 0.00 83 1009.4
20181016132403 55 173 2.0 7.0 0.00 0.00 0.00 80 1009.3
20181016131415 55 182 2.0 9.0 0.00 0.00 0.00 79 1009.1
20181016130357 56 267 4.0 14.0 0.00 0.00 0.00 78 1009.2
20181016125349 56 162 3.0 13.0 0.00 0.00 0.00 75 1009.1
20181016124324 57 143 4.0 17.0 0.00 0.00 0.00 72 1008.9
20181016123339 57 145 5.0 17.0 0.00 0.00 0.00 71 1009.0
20181016122338 57 167 4.0 12.0 0.00 0.00 0.00 73 1008.8
20181016121354 57 152 4.0 12.0 0.00 0.00 0.00 74 1008.9
20181016120350 57 190 5.0 10.0 0.00 0.00 0.00 75 1008.9
20181016115332 57 200 3.0 11.0 0.00 0.00 0.00 75 1009.0
20181016114315 57 147 4.0 11.0 0.00 0.00 0.00 75 1009.0
20181016113257 57 186 4.0 10.0 0.00 0.00 0.00 75 1009.1
20181016112240 57 150 3.0 8.0 0.00 0.00 0.00 76 1009.2
20181016111253 57 142 3.0 11.0 0.00 0.00 0.00 76 1009.2
20181016110231 56 216 3.0 11.0 0.00 0.00 0.00 76 1009.2
20181016105206 56 186 2.0 9.0 0.00 0.00 0.00 78 1009.2
20181016104134 56 182 3.0 9.0 0.00 0.00 0.00 78 1009.5
20181016103142 56 148 1.0 9.0 0.00 0.00 0.00 79 1009.6
20181016102124 55 219 3.0 9.0 0.00 0.00 0.00 79 1009.9
20181016101127 55 152 3.0 10.0 0.00 0.00 0.00 79 1009.8
20181016100120 54 156 2.0 10.0 0.00 0.00 0.00 81 1009.8
20181016095108 53 193 1.0 3.0 0.00 0.00 0.00 87 1010.0
20181016094122 52 220 1.0 3.0 0.00 0.00 0.00 88 1010.0
20181016093051 51 196 1.0 4.0 0.00 0.00 0.00 89 1010.0
20181016092052 51 298 1.0 4.0 0.00 0.00 0.00 89 1010.2
20181016091048 51 188 1.0 4.0 0.00 0.00 0.00 88 1010.3
20181016090102 51 184 1.0 3.0 0.00 0.00 0.00 89 1010.2
20181016085058 51 199 1.0 4.0 0.00 0.00 0.00 90 1010.3
20181016084036 50 179 1.0 4.0 0.00 0.00 0.00 90 1010.5
20181016083007 50 207 2.0 4.0 0.00 0.00 0.00 91 1010.5
20181016081944 50 206 2.0 5.0 0.00 0.00 0.00 90 1010.6
20181016080924 50 209 1.0 5.0 0.00 0.00 0.00 91 1010.6
20181016075933 49 259 1.0 5.0 0.00 0.00 0.00 91 1010.8
20181016074924 49 235 1.0 4.0 0.00 0.00 0.00 91 1010.9
20181016073923 49 225 1.0 4.0 0.00 0.00 0.00 91 1010.9
20181016072946 49 233 0.0 3.0 0.00 0.00 0.00 91 1011.0
20181016071931 49 246 0.0 1.0 0.00 0.00 0.00 91 1011.1
20181016070943 49 232 0.0 3.0 0.00 0.00 0.00 91 1011.0
20181016065913 49 234 0.0 7.0 0.00 0.00 0.00 91 1011.1
20181016064907 49 205 3.0 7.0 0.00 0.00 0.00 91 1011.0
20181016063908 49 192 2.0 6.0 0.00 0.00 0.00 91 1011.0
20181016062851 48 202 2.0 6.0 0.00 0.00 0.00 91 1011.2
20181016061853 48 225 1.0 4.0 0.00 0.00 0.00 91 1011.3
20181016060915 48 215 1.0 3.0 0.00 0.00 0.00 91 1011.5
20181016055928 47 213 0.0 3.0 0.00 0.00 0.00 91 1011.7
20181016054931 47 59 0.0 1.0 0.00 0.00 0.00 90 1011.6
20181016053950 47 51 0.0 1.0 0.00 0.00 0.00 90 1011.7
20181016053005 47 96 0.0 4.0 0.00 0.00 0.00 89 1011.9
20181016052005 47 73 0.0 2.0 0.00 0.00 0.00 89 1011.9
20181016050935 47 77 0.0 2.0 0.00 0.00 0.00 89 1012.0
20181016045901 47 235 0.0 2.0 0.00 0.00 0.00 89 1012.0
20181016044906 47 49 0.0 2.0 0.00 0.00 0.00 89 1012.0
20181016043930 47 275 0.0 1.0 0.00 0.00 0.00 89 1012.0
20181016042911 47 209 0.0 2.0 0.00 0.00 0.00 89 1012.1
20181016041909 46 188 1.0 3.0 0.00 0.00 0.00 89 1012.2
20181016040922 46 304 0.0 3.0 0.00 0.00 0.00 89 1012.2
20181016035850 46 178 0.0 4.0 0.00 0.00 0.00 89 1012.1
20181016034838 45 153 0.0 4.0 0.00 0.00 0.00 88 1012.3
20181016033854 45 76 0.0 4.0 0.00 0.00 0.00 87 1012.4
20181016032838 46 67 0.0 6.0 0.00 0.00 0.00 87 1012.5
20181016031845 46 255 0.0 7.0 0.00 0.00 0.00 87 1012.6
20181016030856 45 242 0.0 7.0 0.00 0.00 0.00 87 1012.8
20181016025841 45 81 0.0 3.0 0.00 0.00 0.00 87 1013.1
20181016024903 45 95 0.0 3.0 0.00 0.00 0.00 88 1013.2
20181016023838 44 107 0.0 0.0 0.00 0.00 0.00 87 1013.1
20181016022831 45 20 1.0 4.0 0.00 0.00 0.00 87 1013.3
20181016021805 45 65 0.0 0.0 0.00 0.00 0.00 87 1013.7
20181016020747 45 258 0.0 2.0 0.00 0.00 0.00 88 1014.1
20181016015809 44 118 0.0 0.0 0.00 0.00 0.00 89 1014.2
20181016014805 44 173 0.0 0.0 0.00 0.00 0.00 89 1014.0
20181016013732 44 186 0.0 1.0 0.00 0.00 0.00 90 1014.1
20181016012714 43 71 0.0 2.0 0.00 0.00 0.00 90 1014.1
20181016011721 43 245 0.0 0.0 0.00 0.00 0.00 88 1014.3
20181016010716 44 245 0.0 0.0 0.00 0.00 0.00 88 1014.3
20181016005712 44 199 0.0 0.0 0.00 0.00 0.00 88 1014.3
20181016004727 44 180 0.0 2.0 0.00 0.00 0.00 88 1014.4
20181016003709 44 119 0.0 1.0 0.00 0.00 0.00 88 1014.7
20181016002726 44 227 0.0 1.0 0.00 0.00 0.00 88 1014.8
20181016001740 45 209 0.0 0.0 0.00 0.00 0.00 88 1014.9
20181016000713 45 221 0.0 1.0 0.00 0.00 0.00 87 1015.0
20181015235641 45 232 0.0 3.0 0.00 0.00 0.00 87 1015.0
20181015234654 45 60 0.0 3.0 0.00 0.00 0.00 87 1015.1
20181015233625 45 262 0.0 4.0 0.00 0.00 0.00 86 1015.3
20181015232609 45 39 0.0 4.0 0.00 0.00 0.00 86 1015.3
20181015231552 45 265 0.0 2.0 0.00 0.00 0.00 86 1015.4
20181015230559 45 238 0.0 3.0 0.00 0.00 0.00 85 1015.4
20181015225617 45 198 0.0 3.0 0.00 0.00 0.00 85 1015.8
20181015224552 45 296 0.0 1.0 0.00 0.00 0.00 84 1016.0
20181015223555 45 211 0.0 0.0 0.00 0.00 0.00 84 1016.0
20181015222526 45 200 0.0 1.0 0.00 0.00 0.00 83 1016.1
20181015221534 45 224 0.0 3.0 0.00 0.00 0.00 84 1016.1
20181015220511 44 158 0.0 0.0 0.00 0.00 0.00 83 1016.3
20181015215512 44 68 0.0 1.0 0.00 0.00 0.00 83 1016.4
20181015214456 44 74 0.0 0.0 0.00 0.00 0.00 82 1016.3
20181015213502 44 84 0.0 0.0 0.00 0.00 0.00 82 1016.3
20181015212523 44 78 0.0 2.0 0.00 0.00 0.00 81 1016.3
20181015211548 44 130 0.0 0.0 0.00 0.00 0.00 81 1016.3
20181015210524 45 78 0.0 0.0 0.00 0.00 0.00 81 1016.3
20181015205543 45 76 0.0 4.0 0.00 0.00 0.00 81 1016.2
20181015204526 45 70 0.0 2.0 0.00 0.00 0.00 81 1016.2
20181015203540 45 76 0.0 1.0 0.00 0.00 0.00 80 1016.2
20181015202550 46 110 0.0 1.0 0.00 0.00 0.00 80 1016.2
20181015201544 46 96 0.0 1.0 0.00 0.00 0.00 81 1016.2
20181015200513 46 64 0.0 0.0 0.00 0.00 0.00 80 1016.2
20181015195524 46 192 0.0 0.0 0.00 0.00 0.00 80 1016.3
20181015194520 46 51 0.0 1.0 0.00 0.00 0.00 82 1016.4
20181015193452 46 17 0.0 0.0 0.00 0.00 0.00 81 1016.3
20181015192438 46 225 0.0 0.0 0.00 0.00 0.00 80 1016.4
20181015191454 46 209 0.0 0.0 0.00 0.00 0.00 79 1016.4
20181015190445 46 227 0.0 0.0 0.00 0.00 0.00 78 1016.5
20181015185413 46 231 0.0 0.0 0.00 0.00 0.00 77 1016.5
20181015184425 46 100 0.0 0.0 0.00 0.00 0.00 75 1016.6
20181015183445 46 95 0.0 1.0 0.00 0.00 0.00 76 1016.6
20181015182411 44 236 0.0 0.0 0.00 0.00 0.00 79 1016.6
20181015181411 44 39 0.0 0.0 0.00 0.00 0.00 80 1016.4
20181015180343 46 47 0.0 0.0 0.00 0.00 0.00 76 1016.4
20181015175347 47 48 0.0 0.0 0.00 0.00 0.00 72 1016.2
20181015174406 49 48 0.0 0.0 0.00 0.00 0.00 68 1016.1
20181015173421 50 48 0.0 0.0 0.00 0.00 0.00 64 1016.0
20181015172440 51 30 0.0 0.0 0.00 0.00 0.00 63 1015.9
20181015171446 52 30 0.0 0.0 0.00 0.00 0.00 57 1015.8
20181015170420 54 31 0.0 0.0 0.00 0.00 0.00 54 1015.8
20181015165351 55 46 0.0 0.0 0.00 0.00 0.00 51 1015.8